Time;durP1;ratioP1;P1;durP2;ratioP2;P2;SDS_P1;SDS_P2;PMS_P1;PMS_P2;Temp;Humidity;BMP_temperature;BMP_pressure;BME280_temperature;BME280_humidity;BME280_pressure;Samples;Min_cycle;Max_cycle;Signal;HPM_P1;HPM_P2
2022/02/19 00:00:58;;;;;;;4.17;1.03;;;;;;;;;;5071372;28;20441;-73
2022/02/19 00:03:26;;;;;;;63.60;24.50;;;;;;;;;;5070650;28;20546;-74
2022/02/19 00:05:54;;;;;;;240.95;63.40;;;;;;;;;;5072776;28;20487;-72
2022/02/19 00:08:23;;;;;;;3.03;1.10;;;;;;;;;;5074631;28;20194;-73
2022/02/19 00:10:53;;;;;;;93.10;51.60;;;;;;;;;;5075503;28;22273;-74
2022/02/19 00:13:22;;;;;;;3.70;1.20;;;;;;;;;;5075325;28;20467;-74
2022/02/19 00:15:49;;;;;;;6.10;1.67;;;;;;;;;;5076261;28;20895;-73
2022/02/19 00:18:18;;;;;;;3.33;1.00;;;;;;;;;;5075200;28;20857;-73
2022/02/19 00:20:46;;;;;;;13.10;2.03;;;;;;;;;;5073705;28;20547;-73
2022/02/19 00:23:14;;;;;;;6.03;1.30;;;;;;;;;;5055967;28;20526;-73
2022/02/19 00:25:42;;;;;;;5.33;1.00;;;;;;;;;;5068804;28;20491;-74
2022/02/19 00:28:11;;;;;;;5.70;1.80;;;;;;;;;;5066178;28;20456;-73
2022/02/19 00:30:40;;;;;;;231.35;72.85;;;;;;;;;;5078805;28;20526;-73
2022/02/19 00:33:09;;;;;;;274.95;103.97;;;;;;;;;;5069846;28;20624;-73
2022/02/19 00:35:36;;;;;;;266.17;87.10;;;;;;;;;;5077944;28;20205;-73
2022/02/19 00:38:04;;;;;;;256.90;80.53;;;;;;;;;;5086485;28;20194;-73
2022/02/19 00:40:32;;;;;;;269.92;86.00;;;;;;;;;;5079155;28;20569;-73
2022/02/19 00:43:00;;;;;;;249.38;80.47;;;;;;;;;;5091567;28;20194;-73
2022/02/19 00:45:29;;;;;;;254.82;83.55;;;;;;;;;;5084127;28;20208;-73
2022/02/19 00:47:57;;;;;;;293.48;147.02;;;;;;;;;;5071521;28;20198;-72
2022/02/19 00:50:25;;;;;;;275.60;80.85;;;;;;;;;;5075834;28;20625;-73
2022/02/19 00:52:55;;;;;;;263.17;81.18;;;;;;;;;;5073220;28;20281;-73
2022/02/19 00:55:23;;;;;;;279.20;69.30;;;;;;;;;;5078230;28;20209;-73
2022/02/19 00:57:50;;;;;;;262.00;64.80;;;;;;;;;;5077753;28;20284;-73
2022/02/19 01:00:18;;;;;;;286.65;71.32;;;;;;;;;;5078962;28;20191;-72
2022/02/19 01:02:48;;;;;;;125.30;46.85;;;;;;;;;;5078878;28;20599;-73
2022/02/19 01:05:16;;;;;;;8.20;1.80;;;;;;;;;;5077149;28;20194;-73
2022/02/19 01:07:44;;;;;;;3.20;1.00;;;;;;;;;;5073923;28;20449;-74
2022/02/19 01:10:11;;;;;;;2.90;1.17;;;;;;;;;;5078980;28;20520;-73
2022/02/19 01:12:39;;;;;;;278.15;85.70;;;;;;;;;;5078136;28;20730;-74
2022/02/19 01:15:10;;;;;;;268.85;96.53;;;;;;;;;;5077996;28;20604;-73
2022/02/19 01:17:38;;;;;;;260.35;67.20;;;;;;;;;;5077246;28;20195;-72
2022/02/19 01:20:09;;;;;;;248.95;66.72;;;;;;;;;;5082185;28;20278;-74
2022/02/19 01:22:39;;;;;;;277.85;115.78;;;;;;;;;;5078999;28;20267;-73
2022/02/19 01:25:07;;;;;;;6.73;1.20;;;;;;;;;;5062023;28;20606;-73
2022/02/19 01:27:34;;;;;;;5.33;0.73;;;;;;;;;;5081672;28;20445;-73
2022/02/19 01:30:03;;;;;;;2.20;1.10;;;;;;;;;;5065696;28;21110;-73
2022/02/19 01:32:30;;;;;;;4.70;1.30;;;;;;;;;;5090514;28;20477;-73
2022/02/19 01:34:58;;;;;;;5.57;1.07;;;;;;;;;;5077768;28;20452;-73
2022/02/19 01:37:27;;;;;;;4.60;1.83;;;;;;;;;;5077539;28;20452;-73
2022/02/19 01:39:55;;;;;;;10.20;2.97;;;;;;;;;;5078077;28;20441;-73
2022/02/19 01:42:23;;;;;;;283.08;91.20;;;;;;;;;;5081107;28;20799;-73
2022/02/19 01:45:17;;;;;;;261.67;91.70;;;;;;;;;;5078100;28;20226;-73
2022/02/19 01:47:45;;;;;;;306.33;166.70;;;;;;;;;;5074677;28;20640;-73
2022/02/19 01:50:18;;;;;;;268.02;68.18;;;;;;;;;;5078337;28;20561;-73
2022/02/19 01:52:47;;;;;;;257.70;65.72;;;;;;;;;;5084097;28;20560;-73
2022/02/19 01:55:16;;;;;;;267.98;66.35;;;;;;;;;;5074307;28;20468;-73
2022/02/19 01:57:44;;;;;;;211.73;59.58;;;;;;;;;;5084155;28;20214;-73
2022/02/19 02:00:13;;;;;;;269.65;69.35;;;;;;;;;;5087520;28;20191;-73
2022/02/19 02:02:41;;;;;;;105.95;27.13;;;;;;;;;;5078623;28;20225;-73
2022/02/19 02:05:09;;;;;;;301.38;143.50;;;;;;;;;;5077899;28;20226;-73
2022/02/19 02:07:37;;;;;;;258.20;64.78;;;;;;;;;;5077770;28;20231;-73
2022/02/19 02:10:07;;;;;;;246.30;119.68;;;;;;;;;;5077591;28;20272;-73
2022/02/19 02:12:35;;;;;;;286.10;93.30;;;;;;;;;;5078807;28;20199;-73
2022/02/19 02:15:04;;;;;;;331.10;216.35;;;;;;;;;;5074785;28;20300;-73
2022/02/19 02:17:32;;;;;;;347.52;243.68;;;;;;;;;;5084847;28;20205;-73
2022/02/19 02:20:00;;;;;;;311.25;161.57;;;;;;;;;;5079219;28;20222;-74
2022/02/19 02:22:30;;;;;;;250.43;65.22;;;;;;;;;;5086254;28;20636;-74
2022/02/19 02:24:58;;;;;;;238.48;70.15;;;;;;;;;;5085717;28;20571;-74
2022/02/19 02:27:29;;;;;;;235.95;63.80;;;;;;;;;;5080370;28;21363;-74
2022/02/19 02:29:57;;;;;;;236.50;63.88;;;;;;;;;;5090845;28;20223;-74
2022/02/19 02:32:25;;;;;;;242.15;67.25;;;;;;;;;;5088862;28;20197;-74
2022/02/19 02:34:54;;;;;;;242.65;67.90;;;;;;;;;;5090352;28;20297;-74
2022/02/19 02:37:23;;;;;;;234.48;66.22;;;;;;;;;;5092196;28;20197;-74
2022/02/19 02:39:52;;;;;;;250.80;69.35;;;;;;;;;;5087601;28;20194;-74
2022/02/19 02:42:20;;;;;;;25.47;21.97;;;;;;;;;;5085240;28;20529;-74
2022/02/19 02:44:49;;;;;;;42.42;30.30;;;;;;;;;;5088066;28;21008;-74
2022/02/19 02:47:17;;;;;;;16.48;15.50;;;;;;;;;;5077385;28;20215;-74
2022/02/19 02:49:45;;;;;;;12.75;11.48;;;;;;;;;;5078065;28;20232;-74
2022/02/19 02:52:13;;;;;;;10.75;9.65;;;;;;;;;;5097773;28;20273;-74
2022/02/19 02:54:41;;;;;;;24.70;20.77;;;;;;;;;;5073357;28;20301;-74
2022/02/19 02:57:11;;;;;;;45.55;32.28;;;;;;;;;;5076429;28;20309;-74
2022/02/19 02:59:38;;;;;;;21.77;18.35;;;;;;;;;;5077161;28;20224;-75
2022/02/19 03:02:06;;;;;;;22.42;18.67;;;;;;;;;;5077168;28;20215;-74
2022/02/19 03:04:39;;;;;;;49.20;28.77;;;;;;;;;;5070522;28;20497;-74
2022/02/19 03:07:07;;;;;;;38.55;24.10;;;;;;;;;;5074800;28;20596;-74
2022/02/19 03:09:35;;;;;;;37.30;25.23;;;;;;;;;;5076391;28;20222;-74
2022/02/19 03:12:04;;;;;;;23.13;20.83;;;;;;;;;;5076869;28;20239;-75
2022/02/19 03:14:33;;;;;;;27.83;23.45;;;;;;;;;;5076120;28;20273;-75
2022/02/19 03:17:02;;;;;;;10.02;9.18;;;;;;;;;;5057558;28;20240;-74
2022/02/19 03:19:30;;;;;;;15.63;10.95;;;;;;;;;;5068310;28;20261;-75
2022/02/19 03:21:57;;;;;;;8.40;5.22;;;;;;;;;;5076919;28;20219;-75
2022/02/19 03:24:26;;;;;;;180.73;70.00;;;;;;;;;;5076174;28;20210;-75
2022/02/19 03:26:53;;;;;;;174.98;65.35;;;;;;;;;;5076681;28;20296;-74
2022/02/19 03:29:21;;;;;;;59.40;24.85;;;;;;;;;;5076533;28;20341;-75
2022/02/19 03:31:50;;;;;;;124.18;46.13;;;;;;;;;;5076484;28;20262;-74
2022/02/19 03:34:18;;;;;;;7.07;4.05;;;;;;;;;;5075956;28;20225;-75
2022/02/19 03:36:46;;;;;;;117.30;44.42;;;;;;;;;;5076759;28;20230;-75
2022/02/19 03:39:14;;;;;;;70.38;27.15;;;;;;;;;;5076755;28;20208;-75
2022/02/19 03:41:42;;;;;;;111.88;42.97;;;;;;;;;;5076117;28;20626;-75
2022/02/19 03:44:10;;;;;;;67.15;25.75;;;;;;;;;;5076386;28;20225;-74
2022/02/19 03:46:37;;;;;;;28.50;12.40;;;;;;;;;;5075850;28;20624;-74
2022/02/19 03:49:07;;;;;;;130.25;52.13;;;;;;;;;;5076690;28;20602;-75
2022/02/19 03:51:36;;;;;;;11.43;4.95;;;;;;;;;;5076132;28;20232;-75
2022/02/19 03:54:05;;;;;;;122.93;48.17;;;;;;;;;;5076005;28;20213;-74
2022/02/19 03:56:34;;;;;;;92.22;39.17;;;;;;;;;;5075721;28;20280;-74
2022/02/19 03:59:01;;;;;;;72.63;32.13;;;;;;;;;;5076121;28;20227;-74
2022/02/19 04:01:29;;;;;;;77.90;31.35;;;;;;;;;;5076173;28;20205;-74
2022/02/19 04:03:58;;;;;;;71.63;30.95;;;;;;;;;;5075240;28;20355;-74
2022/02/19 04:06:27;;;;;;;67.32;30.48;;;;;;;;;;5076544;28;20218;-74
2022/02/19 04:08:56;;;;;;;70.32;26.92;;;;;;;;;;5075639;28;20209;-75
2022/02/19 04:11:24;;;;;;;47.33;18.70;;;;;;;;;;5079405;28;20232;-74
2022/02/19 04:13:52;;;;;;;50.92;29.05;;;;;;;;;;5079080;28;20217;-73
2022/02/19 04:16:26;;;;;;;53.10;30.15;;;;;;;;;;5080255;28;20298;-73
2022/02/19 04:18:54;;;;;;;54.67;29.40;;;;;;;;;;5079402;28;20205;-73
2022/02/19 04:21:22;;;;;;;45.00;28.65;;;;;;;;;;5080246;28;20295;-74
2022/02/19 04:23:51;;;;;;;44.55;28.92;;;;;;;;;;5079406;28;20500;-74
2022/02/19 04:26:18;;;;;;;48.00;30.23;;;;;;;;;;5079460;28;20222;-74
2022/02/19 04:28:46;;;;;;;37.13;26.67;;;;;;;;;;5078950;28;20227;-73
2022/02/19 04:31:14;;;;;;;36.38;25.63;;;;;;;;;;5079405;28;20751;-72
2022/02/19 04:33:42;;;;;;;33.45;24.55;;;;;;;;;;5076308;28;20256;-74
2022/02/19 04:36:09;;;;;;;29.13;23.65;;;;;;;;;;5074064;28;20726;-74
2022/02/19 04:38:37;;;;;;;35.15;26.15;;;;;;;;;;5079835;28;20221;-74
2022/02/19 04:41:06;;;;;;;29.33;23.13;;;;;;;;;;5080020;28;20211;-74
2022/02/19 04:43:34;;;;;;;81.28;33.17;;;;;;;;;;5080522;28;20313;-74
2022/02/19 04:46:02;;;;;;;27.20;23.08;;;;;;;;;;5080245;28;20523;-74
2022/02/19 04:48:29;;;;;;;34.95;25.40;;;;;;;;;;5079445;28;20218;-74
2022/02/19 04:50:57;;;;;;;33.55;24.92;;;;;;;;;;5079403;28;20245;-74
2022/02/19 04:53:25;;;;;;;25.00;20.80;;;;;;;;;;5073185;28;20216;-74
2022/02/19 04:55:53;;;;;;;24.52;20.42;;;;;;;;;;5078505;28;20213;-74
2022/02/19 04:58:22;;;;;;;24.70;20.63;;;;;;;;;;5079306;28;20243;-74
2022/02/19 05:00:50;;;;;;;24.33;20.23;;;;;;;;;;5079587;28;20219;-75
2022/02/19 05:03:18;;;;;;;24.35;20.65;;;;;;;;;;5074520;28;20241;-75
2022/02/19 05:05:48;;;;;;;24.27;20.92;;;;;;;;;;5074802;28;20257;-75
2022/02/19 05:08:15;;;;;;;23.85;20.05;;;;;;;;;;5081011;28;20220;-74
2022/02/19 05:10:45;;;;;;;24.20;20.50;;;;;;;;;;5080626;28;20701;-74
2022/02/19 05:13:12;;;;;;;22.35;19.67;;;;;;;;;;5078826;28;20300;-74
2022/02/19 05:15:42;;;;;;;25.00;20.83;;;;;;;;;;5075870;28;20217;-74
2022/02/19 05:18:09;;;;;;;23.70;20.27;;;;;;;;;;5084910;28;20216;-74
2022/02/19 05:20:38;;;;;;;24.00;20.88;;;;;;;;;;5079641;28;20224;-74
2022/02/19 05:23:06;;;;;;;24.02;21.20;;;;;;;;;;5078366;28;20565;-73
2022/02/19 05:25:33;;;;;;;23.27;20.75;;;;;;;;;;5077725;28;20224;-73
2022/02/19 05:28:04;;;;;;;22.25;19.75;;;;;;;;;;5085273;28;20301;-73
2022/02/19 05:30:32;;;;;;;23.55;21.05;;;;;;;;;;5091398;28;20237;-73
2022/02/19 05:33:01;;;;;;;20.90;18.70;;;;;;;;;;5080575;28;20277;-73
2022/02/19 05:35:29;;;;;;;20.52;18.38;;;;;;;;;;5079505;28;20219;-73
2022/02/19 05:38:00;;;;;;;21.92;18.80;;;;;;;;;;5079416;28;20246;-73
2022/02/19 05:40:28;;;;;;;22.75;20.27;;;;;;;;;;5064360;28;20723;-73
2022/02/19 05:42:58;;;;;;;22.10;19.27;;;;;;;;;;5076734;28;20217;-73
2022/02/19 05:45:26;;;;;;;22.70;20.20;;;;;;;;;;5077336;28;20293;-73
2022/02/19 05:47:56;;;;;;;22.75;20.25;;;;;;;;;;5079162;28;20229;-73
2022/02/19 05:50:28;;;;;;;24.77;20.95;;;;;;;;;;5079429;28;20583;-73
2022/02/19 05:53:01;;;;;;;23.85;20.85;;;;;;;;;;5077858;28;20312;-73
2022/02/19 05:55:29;;;;;;;24.55;21.35;;;;;;;;;;5079318;28;20251;-73
2022/02/19 05:57:57;;;;;;;24.05;21.45;;;;;;;;;;5080530;28;20581;-73
2022/02/19 06:00:26;;;;;;;20.45;17.95;;;;;;;;;;5079625;28;20625;-73
2022/02/19 06:02:55;;;;;;;24.77;21.23;;;;;;;;;;5079870;28;20217;-73
2022/02/19 06:05:23;;;;;;;29.10;23.48;;;;;;;;;;5061263;28;20237;-73
2022/02/19 06:07:54;;;;;;;31.73;23.88;;;;;;;;;;5073740;28;20214;-74
2022/02/19 06:10:22;;;;;;;36.45;26.15;;;;;;;;;;5086368;28;20219;-73
2022/02/19 06:12:50;;;;;;;29.38;23.17;;;;;;;;;;5079912;28;20326;-73
2022/02/19 06:15:18;;;;;;;25.48;21.58;;;;;;;;;;5084142;28;20219;-73
2022/02/19 06:17:46;;;;;;;33.65;24.77;;;;;;;;;;5071650;28;20215;-72
2022/02/19 06:20:14;;;;;;;29.08;23.10;;;;;;;;;;5080696;28;20218;-73
2022/02/19 06:22:42;;;;;;;33.92;25.00;;;;;;;;;;5079554;28;20209;-73
2022/02/19 06:25:12;;;;;;;34.15;25.65;;;;;;;;;;5080257;28;20220;-74
2022/02/19 06:27:40;;;;;;;36.03;25.70;;;;;;;;;;5091222;28;20213;-73
2022/02/19 06:30:09;;;;;;;29.00;23.80;;;;;;;;;;5078682;28;20216;-74
2022/02/19 06:32:37;;;;;;;38.88;26.58;;;;;;;;;;5078619;28;20288;-73
2022/02/19 06:35:08;;;;;;;30.67;23.73;;;;;;;;;;5078363;28;20272;-73
2022/02/19 06:37:39;;;;;;;21.48;19.20;;;;;;;;;;5078023;28;20218;-74
2022/02/19 06:40:08;;;;;;;23.95;21.23;;;;;;;;;;5079328;28;20307;-74
2022/02/19 06:42:38;;;;;;;12.45;11.13;;;;;;;;;;5078759;28;20322;-74
2022/02/19 06:45:06;;;;;;;42.40;27.85;;;;;;;;;;5078463;28;20522;-74
2022/02/19 06:47:34;;;;;;;46.15;30.67;;;;;;;;;;5077502;28;20222;-73
2022/02/19 06:50:02;;;;;;;37.97;30.55;;;;;;;;;;5079525;28;20220;-73
2022/02/19 06:52:30;;;;;;;38.42;25.98;;;;;;;;;;5078528;28;20266;-73
2022/02/19 06:54:59;;;;;;;37.55;25.63;;;;;;;;;;5078256;28;20226;-73
2022/02/19 06:57:26;;;;;;;42.00;29.13;;;;;;;;;;5078591;28;20226;-73
2022/02/19 06:59:56;;;;;;;39.03;28.40;;;;;;;;;;5078850;28;20572;-73
2022/02/19 07:02:23;;;;;;;36.25;25.77;;;;;;;;;;5078545;28;20290;-73
2022/02/19 07:04:53;;;;;;;33.88;25.73;;;;;;;;;;5078349;28;20225;-73
2022/02/19 07:07:20;;;;;;;26.42;22.35;;;;;;;;;;5077596;28;20596;-73
2022/02/19 07:09:51;;;;;;;26.80;23.17;;;;;;;;;;5078411;28;20302;-73
2022/02/19 07:12:18;;;;;;;27.95;24.48;;;;;;;;;;5079464;28;20317;-73
2022/02/19 07:14:47;;;;;;;26.30;22.40;;;;;;;;;;5077645;28;20258;-73
2022/02/19 07:17:16;;;;;;;26.83;22.80;;;;;;;;;;5076974;28;20320;-73
2022/02/19 07:19:43;;;;;;;34.15;17.08;;;;;;;;;;5076014;28;20257;-73
2022/02/19 07:22:11;;;;;;;70.13;31.15;;;;;;;;;;5078445;28;20212;-73
2022/02/19 07:24:39;;;;;;;36.53;18.00;;;;;;;;;;5079264;28;20773;-73
2022/02/19 07:27:08;;;;;;;60.22;29.60;;;;;;;;;;5068424;28;20212;-73
2022/02/19 07:29:39;;;;;;;68.63;30.63;;;;;;;;;;5075898;28;20230;-73
2022/02/19 07:32:16;;;;;;;64.72;33.63;;;;;;;;;;5065611;28;20239;-73
2022/02/19 07:34:45;;;;;;;59.45;30.98;;;;;;;;;;5076341;28;20230;-74
2022/02/19 07:37:13;;;;;;;63.63;32.90;;;;;;;;;;5074709;28;20223;-73
2022/02/19 07:39:47;;;;;;;62.85;30.42;;;;;;;;;;5074094;28;20249;-72
2022/02/19 07:42:15;;;;;;;68.72;32.25;;;;;;;;;;5075990;28;20211;-74
2022/02/19 07:44:44;;;;;;;66.03;34.15;;;;;;;;;;5079564;28;20303;-74
2022/02/19 07:47:12;;;;;;;58.08;30.83;;;;;;;;;;5077330;28;20214;-74
2022/02/19 08:00:48;;;;;;;68.20;31.15;;;;;;;;;;5076493;28;20217;-74
2022/02/19 08:03:24;;;;;;;59.47;29.73;;;;;;;;;;5071511;28;20210;-74
2022/02/19 08:05:57;;;;;;;63.00;36.88;;;;;;;;;;5067857;28;20216;-73
2022/02/19 08:08:42;;;;;;;68.32;36.05;;;;;;;;;;5074749;28;20241;-73
2022/02/19 08:11:11;;;;;;;50.83;30.58;;;;;;;;;;5072376;28;20211;-74
2022/02/19 08:13:39;;;;;;;44.55;28.65;;;;;;;;;;5075551;28;20284;-74
2022/02/19 08:16:15;;;;;;;48.53;32.72;;;;;;;;;;5074546;28;20218;-73
2022/02/19 08:18:47;;;;;;;47.08;30.63;;;;;;;;;;5073157;28;20233;-73
2022/02/19 08:21:18;;;;;;;47.60;31.35;;;;;;;;;;5074006;28;20211;-73
2022/02/19 08:24:03;;;;;;;30.77;27.20;;;;;;;;;;5073037;28;20230;-73
2022/02/19 08:29:26;;;;;;;29.88;23.98;;;;;;;;;;5072887;28;20212;-74
2022/02/19 08:32:03;;;;;;;25.10;22.55;;;;;;;;;;5077963;28;20251;-74
2022/02/19 08:34:36;;;;;;;18.70;16.92;;;;;;;;;;5072707;28;20228;-74
2022/02/19 08:37:06;;;;;;;30.30;27.30;;;;;;;;;;5070126;28;20296;-74
2022/02/19 08:39:37;;;;;;;28.88;25.65;;;;;;;;;;5070734;28;20596;-74
2022/02/19 08:47:45;;;;;;;45.38;30.83;;;;;;;;;;5067574;28;20233;-73
2022/02/19 08:50:18;;;;;;;45.90;29.83;;;;;;;;;;5071302;28;20258;-73
2022/02/19 08:52:56;;;;;;;48.22;32.25;;;;;;;;;;5077134;28;20235;-74
2022/02/19 08:55:29;;;;;;;42.92;29.90;;;;;;;;;;5071066;28;20810;-73
2022/02/19 08:58:12;;;;;;;43.97;30.25;;;;;;;;;;5076869;28;20277;-74
2022/02/19 09:00:52;;;;;;;25.60;22.90;;;;;;;;;;5075561;28;20226;-74
2022/02/19 09:06:09;;;;;;;27.48;23.65;;;;;;;;;;5075334;28;20245;-72
2022/02/19 09:08:40;;;;;;;8.07;7.30;;;;;;;;;;5081563;28;20220;-74
2022/02/19 09:14:11;;;;;;;20.35;18.15;;;;;;;;;;5069133;28;20250;-73
2022/02/19 09:16:49;;;;;;;18.95;16.95;;;;;;;;;;5073067;28;20278;-74
2022/02/19 09:19:18;;;;;;;21.95;19.58;;;;;;;;;;5078619;28;20345;-73
2022/02/19 09:21:47;;;;;;;10.40;9.35;;;;;;;;;;5075303;28;20424;-74
2022/02/19 09:24:17;;;;;;;9.20;8.32;;;;;;;;;;5072737;28;20211;-74
2022/02/19 09:26:45;;;;;;;43.85;30.77;;;;;;;;;;5074980;28;20600;-74
2022/02/19 09:29:13;;;;;;;44.88;31.52;;;;;;;;;;5073862;28;20211;-74
2022/02/19 09:31:49;;;;;;;51.55;35.38;;;;;;;;;;5074336;28;20565;-75
2022/02/19 09:34:18;;;;;;;50.60;31.05;;;;;;;;;;5074824;28;20245;-75
2022/02/19 09:36:47;;;;;;;73.63;37.28;;;;;;;;;;5076368;28;20607;-74
2022/02/19 09:39:16;;;;;;;71.75;35.47;;;;;;;;;;5077131;28;20262;-75
2022/02/19 09:41:44;;;;;;;67.78;35.65;;;;;;;;;;5075520;28;20234;-75
2022/02/19 09:44:22;;;;;;;72.43;37.30;;;;;;;;;;5080059;28;20499;-74
2022/02/19 09:49:41;;;;;;;76.50;38.20;;;;;;;;;;5074248;28;20728;-74
2022/02/19 09:52:12;;;;;;;48.50;30.00;;;;;;;;;;5077449;28;20581;-74
2022/02/19 09:54:45;;;;;;;45.72;28.88;;;;;;;;;;5079412;28;20211;-75
2022/02/19 09:57:18;;;;;;;54.63;32.15;;;;;;;;;;5078628;28;20610;-74
2022/02/19 09:59:52;;;;;;;54.72;31.52;;;;;;;;;;5075801;28;20329;-74
2022/02/19 10:02:30;;;;;;;55.17;31.73;;;;;;;;;;5076587;28;20286;-74
2022/02/19 10:05:10;;;;;;;45.47;26.42;;;;;;;;;;5074471;28;20694;-74
2022/02/19 10:07:39;;;;;;;55.90;32.08;;;;;;;;;;5074168;28;20272;-74
2022/02/19 10:10:10;;;;;;;60.90;38.15;;;;;;;;;;5076364;28;20212;-74
2022/02/19 10:12:47;;;;;;;53.90;34.75;;;;;;;;;;5074599;28;20262;-75
2022/02/19 10:15:27;;;;;;;51.75;33.05;;;;;;;;;;5070605;28;20293;-74
2022/02/19 10:17:58;;;;;;;50.25;31.13;;;;;;;;;;5072853;28;20236;-74
2022/02/19 10:20:29;;;;;;;61.70;37.42;;;;;;;;;;5076029;28;20219;-74
2022/02/19 10:22:59;;;;;;;58.20;36.50;;;;;;;;;;5073424;28;20274;-73
2022/02/19 10:25:27;;;;;;;59.72;35.70;;;;;;;;;;5075010;28;20254;-75
2022/02/19 10:28:04;;;;;;;50.28;32.00;;;;;;;;;;5073737;28;20301;-74
2022/02/19 10:30:40;;;;;;;53.63;32.80;;;;;;;;;;5074100;28;20514;-74
2022/02/19 10:33:17;;;;;;;62.42;38.08;;;;;;;;;;5072646;28;20325;-74
2022/02/19 10:35:47;;;;;;;68.15;45.83;;;;;;;;;;5075719;28;20281;-73
2022/02/19 10:38:15;;;;;;;57.92;35.10;;;;;;;;;;5073846;28;20303;-73
2022/02/19 10:40:46;;;;;;;53.20;33.47;;;;;;;;;;5074000;28;20261;-73
2022/02/19 10:43:20;;;;;;;50.30;40.25;;;;;;;;;;5069715;28;20265;-72
2022/02/19 10:45:57;;;;;;;55.95;34.55;;;;;;;;;;5073922;28;20219;-73
2022/02/19 10:48:52;;;;;;;68.38;41.17;;;;;;;;;;5069004;28;20259;-72
2022/02/19 10:51:42;;;;;;;64.63;40.10;;;;;;;;;;5074927;28;20689;-74
2022/02/19 11:00:19;;;;;;;30.85;27.50;;;;;;;;;;5071505;28;20237;-74
2022/02/19 11:02:48;;;;;;;29.17;25.83;;;;;;;;;;5074715;28;20226;-74
2022/02/19 11:05:18;;;;;;;30.88;26.92;;;;;;;;;;5072414;28;20219;-73
2022/02/19 11:07:47;;;;;;;30.90;27.33;;;;;;;;;;5073633;28;20211;-73
2022/02/19 11:10:19;;;;;;;31.67;28.25;;;;;;;;;;5072595;28;20791;-74
2022/02/19 11:12:53;;;;;;;29.88;25.63;;;;;;;;;;5070955;28;20247;-73
2022/02/19 11:15:23;;;;;;;33.72;29.95;;;;;;;;;;5073706;28;20208;-73
2022/02/19 11:17:53;;;;;;;29.60;25.77;;;;;;;;;;5072435;28;20221;-72
2022/02/19 11:20:33;;;;;;;33.78;29.13;;;;;;;;;;5073275;28;20227;-74
2022/02/19 11:23:05;;;;;;;30.42;26.83;;;;;;;;;;5074386;28;20206;-73
2022/02/19 11:25:37;;;;;;;30.02;26.17;;;;;;;;;;5071604;28;20212;-73
2022/02/19 11:28:06;;;;;;;31.17;27.52;;;;;;;;;;5073952;28;20220;-73
2022/02/19 11:30:44;;;;;;;31.58;26.02;;;;;;;;;;5074012;28;20237;-74
2022/02/19 11:33:14;;;;;;;31.02;26.45;;;;;;;;;;5072431;28;20272;-74
2022/02/19 11:35:48;;;;;;;30.00;26.30;;;;;;;;;;5075789;28;20674;-75
2022/02/19 11:38:36;;;;;;;31.23;27.60;;;;;;;;;;5073218;28;20218;-74
2022/02/19 11:41:28;;;;;;;31.63;28.00;;;;;;;;;;5073995;28;20220;-75
2022/02/19 11:43:58;;;;;;;31.00;26.63;;;;;;;;;;5074791;28;20308;-74
2022/02/19 11:47:02;;;;;;;33.50;28.50;;;;;;;;;;5075347;28;20219;-73
2022/02/19 11:53:07;;;;;;;28.70;24.88;;;;;;;;;;5092552;27;20238;-74
2022/02/19 11:55:44;;;;;;;31.35;27.10;;;;;;;;;;5089028;28;20292;-73
2022/02/19 11:58:14;;;;;;;30.25;26.95;;;;;;;;;;5091711;28;20225;-73
2022/02/19 12:00:45;;;;;;;32.63;28.92;;;;;;;;;;5090905;28;20214;-73
2022/02/19 12:03:27;;;;;;;28.30;24.20;;;;;;;;;;5090126;28;20373;-73
2022/02/19 12:06:08;;;;;;;28.92;24.92;;;;;;;;;;5091712;28;20210;-74
2022/02/19 12:08:56;;;;;;;27.45;23.75;;;;;;;;;;5089827;28;20237;-72
2022/02/19 12:11:26;;;;;;;27.63;24.30;;;;;;;;;;5093325;28;20219;-71
2022/02/19 12:13:56;;;;;;;25.60;23.00;;;;;;;;;;5094809;28;20342;-71
2022/02/19 12:16:42;;;;;;;23.38;20.88;;;;;;;;;;5091147;28;20463;-73
2022/02/19 12:19:10;;;;;;;27.63;25.15;;;;;;;;;;5079542;28;20510;-73
2022/02/19 12:21:39;;;;;;;22.17;20.35;;;;;;;;;;5088437;28;20219;-72
2022/02/19 12:24:15;;;;;;;27.60;25.20;;;;;;;;;;5093161;28;20231;-72
2022/02/19 12:27:05;;;;;;;30.30;27.45;;;;;;;;;;5090665;28;20219;-72
2022/02/19 12:29:36;;;;;;;26.98;24.60;;;;;;;;;;5093288;28;20302;-72
2022/02/19 12:32:07;;;;;;;34.58;30.42;;;;;;;;;;5095437;28;20230;-72
2022/02/19 12:34:36;;;;;;;24.73;22.63;;;;;;;;;;5096280;28;20288;-72
2022/02/19 12:37:05;;;;;;;23.55;21.60;;;;;;;;;;5094672;28;20218;-72
2022/02/19 12:39:43;;;;;;;24.88;22.88;;;;;;;;;;5094932;28;20212;-72
2022/02/19 12:42:19;;;;;;;18.42;17.02;;;;;;;;;;5093090;28;20218;-72
2022/02/19 12:44:48;;;;;;;27.48;25.08;;;;;;;;;;5097019;28;20218;-72
2022/02/19 12:47:32;;;;;;;21.67;20.02;;;;;;;;;;5096019;28;20315;-72
2022/02/19 12:50:20;;;;;;;32.47;29.48;;;;;;;;;;5097611;28;20231;-72
2022/02/19 12:53:00;;;;;;;23.63;21.75;;;;;;;;;;5098338;28;20339;-73
2022/02/19 12:55:30;;;;;;;25.02;22.92;;;;;;;;;;5098710;28;20622;-72
2022/02/19 12:58:07;;;;;;;23.77;21.80;;;;;;;;;;5093787;28;20216;-74
2022/02/19 13:00:56;;;;;;;25.98;23.77;;;;;;;;;;5094280;28;20560;-73
2022/02/19 13:03:24;;;;;;;25.10;22.80;;;;;;;;;;5095792;28;20211;-72
2022/02/19 13:05:56;;;;;;;26.23;23.73;;;;;;;;;;5096166;28;20301;-74
2022/02/19 13:08:25;;;;;;;24.45;22.25;;;;;;;;;;5096224;28;20242;-74
2022/02/19 13:10:59;;;;;;;26.10;23.63;;;;;;;;;;5095517;28;20211;-74
2022/02/19 13:13:31;;;;;;;27.88;25.27;;;;;;;;;;5097397;28;20294;-73
2022/02/19 13:16:07;;;;;;;25.20;22.90;;;;;;;;;;5096233;28;20212;-73
2022/02/19 13:18:39;;;;;;;29.38;26.65;;;;;;;;;;5095127;28;20284;-73
2022/02/19 13:21:10;;;;;;;23.10;20.90;;;;;;;;;;5098948;27;20642;-73
2022/02/19 13:23:38;;;;;;;25.77;23.30;;;;;;;;;;5092528;28;20347;-73
2022/02/19 13:26:06;;;;;;;28.55;25.55;;;;;;;;;;5093559;28;20235;-73
2022/02/19 13:28:37;;;;;;;29.98;25.30;;;;;;;;;;5094713;27;20223;-74
2022/02/19 13:31:23;;;;;;;30.33;26.63;;;;;;;;;;5094289;28;20211;-75
2022/02/19 13:33:51;;;;;;;28.10;23.98;;;;;;;;;;5093993;28;20241;-74
2022/02/19 13:36:33;;;;;;;27.88;24.20;;;;;;;;;;5097315;28;20246;-74
2022/02/19 13:39:00;;;;;;;31.02;26.80;;;;;;;;;;5093975;28;20208;-73
2022/02/19 13:41:33;;;;;;;28.60;25.50;;;;;;;;;;5096211;28;20236;-73
2022/02/19 13:44:04;;;;;;;27.77;24.77;;;;;;;;;;5098028;28;20313;-73
2022/02/19 13:46:42;;;;;;;30.73;27.42;;;;;;;;;;5097976;28;20277;-74
2022/02/19 13:49:13;;;;;;;30.15;26.95;;;;;;;;;;5096427;28;20211;-73
2022/02/19 13:51:48;;;;;;;26.73;23.60;;;;;;;;;;5097673;28;20211;-73
2022/02/19 13:54:29;;;;;;;30.67;27.38;;;;;;;;;;5098183;28;20603;-73
2022/02/19 13:57:16;;;;;;;30.05;26.10;;;;;;;;;;5097902;28;20211;-73
2022/02/19 14:00:09;;;;;;;30.85;27.70;;;;;;;;;;5097679;28;20550;-73
2022/02/19 14:02:42;;;;;;;31.25;27.88;;;;;;;;;;5084133;28;20296;-73
2022/02/19 14:05:12;;;;;;;35.45;31.67;;;;;;;;;;5098194;27;20272;-73
2022/02/19 14:07:56;;;;;;;27.52;24.52;;;;;;;;;;5088250;28;20248;-73
2022/02/19 14:10:25;;;;;;;30.40;27.10;;;;;;;;;;5095450;28;20211;-72
2022/02/19 14:12:54;;;;;;;28.77;25.60;;;;;;;;;;5096487;28;20226;-72
2022/02/19 14:15:46;;;;;;;29.92;26.13;;;;;;;;;;5104381;27;20276;-73
2022/02/19 14:18:18;;;;;;;32.97;29.45;;;;;;;;;;5093800;28;20218;-73
2022/02/19 14:20:49;;;;;;;29.05;25.95;;;;;;;;;;5100451;28;20213;-72
2022/02/19 14:23:25;;;;;;;29.35;26.15;;;;;;;;;;5101790;27;20283;-72
2022/02/19 14:25:56;;;;;;;31.00;27.35;;;;;;;;;;5110099;27;20223;-73
2022/02/19 14:28:25;;;;;;;31.48;28.05;;;;;;;;;;5100692;28;20211;-73
2022/02/19 14:30:56;;;;;;;31.60;27.88;;;;;;;;;;5094469;28;20247;-73
2022/02/19 14:33:28;;;;;;;30.00;26.48;;;;;;;;;;5096547;28;20294;-73
2022/02/19 14:36:10;;;;;;;31.30;27.83;;;;;;;;;;5099697;28;20552;-73
2022/02/19 14:38:54;;;;;;;31.30;27.23;;;;;;;;;;5103160;27;20230;-73
2022/02/19 14:41:32;;;;;;;34.08;30.23;;;;;;;;;;5082965;28;20222;-73
2022/02/19 14:44:04;;;;;;;31.33;27.40;;;;;;;;;;5097870;28;20215;-74
2022/02/19 14:46:37;;;;;;;32.22;28.75;;;;;;;;;;5095751;28;20240;-72
2022/02/19 14:49:08;;;;;;;31.27;27.38;;;;;;;;;;5101318;28;20327;-73
2022/02/19 14:52:05;;;;;;;31.45;28.05;;;;;;;;;;5096164;28;20704;-72
2022/02/19 14:57:33;;;;;;;33.15;28.98;;;;;;;;;;5098106;28;20210;-73
2022/02/19 15:00:09;;;;;;;37.83;33.10;;;;;;;;;;5094034;28;20211;-74
2022/02/19 15:02:40;;;;;;;33.33;29.67;;;;;;;;;;5090204;28;20232;-75
2022/02/19 15:05:35;;;;;;;34.78;31.05;;;;;;;;;;5079030;28;20224;-76
2022/02/19 15:08:05;;;;;;;29.30;26.10;;;;;;;;;;5092602;28;20556;-74
2022/02/19 15:10:35;;;;;;;28.55;25.42;;;;;;;;;;5095664;28;20211;-74
2022/02/19 15:13:03;;;;;;;31.55;28.10;;;;;;;;;;5096123;28;20214;-73
2022/02/19 15:15:36;;;;;;;33.85;30.25;;;;;;;;;;5098537;27;20245;-74
2022/02/19 15:18:04;;;;;;;44.58;34.10;;;;;;;;;;5092016;28;20246;-74
2022/02/19 15:20:33;;;;;;;43.58;33.53;;;;;;;;;;5079633;28;20215;-73